Time;durP1;ratioP1;P1;durP2;ratioP2;P2;SDS_P1;SDS_P2;PMS_P1;PMS_P2;Temp;Humidity;BMP_temperature;BMP_pressure;BME280_temperature;BME280_humidity;BME280_pressure;Samples;Min_cycle;Max_cycle;Signal;HPM_P1;HPM_P2
2021/03/01 00:00:39;;;;;;;15.63;7.90;;;1.30;99.90;;;;;;5079320;28;20080;-83
2021/03/01 00:03:05;;;;;;;17.73;7.63;;;1.40;99.90;;;;;;5079639;28;20048;-82
2021/03/01 00:05:32;;;;;;;15.15;7.63;;;1.50;99.90;;;;;;5080404;28;20053;-82
2021/03/01 00:07:58;;;;;;;14.93;7.18;;;1.50;99.90;;;;;;5079613;28;20490;-83
2021/03/01 00:10:25;;;;;;;12.00;6.68;;;1.50;99.90;;;;;;5081938;28;20044;-83
2021/03/01 00:12:51;;;;;;;14.23;7.55;;;1.50;99.90;;;;;;5080041;28;20131;-82
2021/03/01 00:15:22;;;;;;;12.18;7.55;;;1.40;99.90;;;;;;5080435;28;20055;-83
2021/03/01 00:17:49;;;;;;;16.63;8.15;;;1.40;99.90;;;;;;5082468;28;20048;-82
2021/03/01 00:20:15;;;;;;;14.20;8.13;;;1.40;99.90;;;;;;5080553;28;20131;-83
2021/03/01 00:22:44;;;;;;;14.75;9.07;;;1.40;99.90;;;;;;5082546;28;20056;-82
2021/03/01 00:25:12;;;;;;;21.08;8.50;;;1.40;99.90;;;;;;5081269;28;20474;-83
2021/03/01 00:27:39;;;;;;;17.05;8.63;;;1.30;99.90;;;;;;5081924;28;20504;-82
2021/03/01 00:30:08;;;;;;;19.70;8.77;;;1.30;99.90;;;;;;5081423;28;20044;-83
2021/03/01 00:32:35;;;;;;;15.77;9.27;;;1.30;99.90;;;;;;5082395;28;20112;-82
2021/03/01 00:35:02;;;;;;;18.55;9.82;;;1.30;99.90;;;;;;5082946;28;20052;-83
2021/03/01 00:37:29;;;;;;;17.25;10.38;;;1.40;99.90;;;;;;5083380;28;20061;-82
2021/03/01 00:39:56;;;;;;;21.42;11.05;;;1.40;99.90;;;;;;5082425;28;20498;-83
2021/03/01 00:42:22;;;;;;;21.60;12.40;;;1.30;99.90;;;;;;5082818;28;20052;-83
2021/03/01 00:44:49;;;;;;;25.63;13.02;;;1.20;99.90;;;;;;5081842;28;20524;-83
2021/03/01 00:47:15;;;;;;;23.10;10.73;;;1.20;99.90;;;;;;5065519;28;20472;-83
2021/03/01 00:49:41;;;;;;;21.38;10.75;;;1.10;99.90;;;;;;5082358;28;20063;-83
2021/03/01 00:52:09;;;;;;;18.77;10.50;;;1.20;99.90;;;;;;5082447;28;20489;-83
2021/03/01 00:54:35;;;;;;;20.17;10.40;;;1.20;99.90;;;;;;5083950;28;20084;-83
2021/03/01 00:57:02;;;;;;;26.65;9.90;;;1.20;99.90;;;;;;5083735;28;20101;-83
2021/03/01 00:59:29;;;;;;;20.70;9.38;;;1.30;99.90;;;;;;5085351;28;20041;-83
2021/03/01 01:01:55;;;;;;;14.15;8.38;;;1.50;99.90;;;;;;5083382;28;20059;-83
2021/03/01 01:04:23;;;;;;;15.00;8.85;;;1.60;99.90;;;;;;5084521;28;20048;-83
2021/03/01 01:06:49;;;;;;;16.48;8.90;;;1.70;99.90;;;;;;5084399;28;20048;-83
2021/03/01 01:09:17;;;;;;;15.43;8.43;;;1.50;99.90;;;;;;5084993;28;20060;-83
2021/03/01 01:11:44;;;;;;;11.27;7.85;;;1.50;99.90;;;;;;5095563;28;20032;-80
2021/03/01 01:14:10;;;;;;;15.25;7.88;;;1.60;99.90;;;;;;5099128;28;20041;-80
2021/03/01 01:16:37;;;;;;;13.82;7.88;;;1.70;99.90;;;;;;5086061;28;20052;-83
2021/03/01 01:19:06;;;;;;;15.32;7.78;;;1.80;99.90;;;;;;5084851;28;20107;-83
2021/03/01 01:21:32;;;;;;;15.25;7.90;;;1.60;99.90;;;;;;5083495;28;20044;-83
2021/03/01 01:23:59;;;;;;;17.52;8.05;;;1.80;99.90;;;;;;5093518;28;20033;-80
2021/03/01 01:26:25;;;;;;;11.95;7.38;;;1.90;99.90;;;;;;5099439;28;20044;-81
2021/03/01 01:28:51;;;;;;;11.32;7.20;;;2.00;99.90;;;;;;5097168;28;20052;-82
2021/03/01 01:31:17;;;;;;;13.18;7.35;;;2.10;99.90;;;;;;5074732;28;20501;-83
2021/03/01 01:33:44;;;;;;;18.35;8.52;;;2.10;99.90;;;;;;5073730;28;20068;-82
2021/03/01 01:36:10;;;;;;;18.15;8.23;;;1.90;99.90;;;;;;5073236;28;20123;-83
2021/03/01 01:38:50;;;;;;;17.88;8.35;;;1.70;99.90;;;;;;5074595;28;20127;-82
2021/03/01 01:41:17;;;;;;;15.43;8.50;;;1.60;99.90;;;;;;5074236;28;20044;-82
2021/03/01 01:43:43;;;;;;;17.83;7.80;;;1.60;99.90;;;;;;5073206;28;20040;-82
2021/03/01 01:46:10;;;;;;;19.33;8.07;;;1.60;99.90;;;;;;5073438;28;20098;-82
2021/03/01 01:48:36;;;;;;;15.05;7.47;;;1.60;99.90;;;;;;5074207;28;20051;-82
2021/03/01 01:51:03;;;;;;;12.35;7.10;;;1.60;99.90;;;;;;5074436;28;20106;-83
2021/03/01 01:53:30;;;;;;;11.50;6.85;;;1.70;99.90;;;;;;5072702;28;20131;-81
2021/03/01 01:55:57;;;;;;;12.73;7.68;;;1.80;99.90;;;;;;5072782;28;20454;-82
2021/03/01 01:58:23;;;;;;;15.63;6.90;;;2.00;99.90;;;;;;5072922;28;20148;-83
2021/03/01 02:00:50;;;;;;;13.75;7.05;;;2.10;99.90;;;;;;5072442;28;20044;-82
2021/03/01 02:03:37;;;;;;;12.80;7.10;;;2.20;99.90;;;;;;5073027;28;20135;-82
2021/03/01 02:06:23;;;;;;;10.88;6.03;;;2.20;99.90;;;;;;5074004;28;20083;-82
2021/03/01 02:09:15;;;;;;;13.55;7.50;;;2.10;99.90;;;;;;5072131;28;20048;-83
2021/03/01 02:12:00;;;;;;;14.80;7.15;;;1.90;99.90;;;;;;5072596;28;20502;-83
2021/03/01 02:14:41;;;;;;;15.07;8.05;;;1.80;99.90;;;;;;5073968;28;20040;-82
2021/03/01 02:17:07;;;;;;;14.18;7.55;;;1.80;99.90;;;;;;5072714;28;20128;-82
2021/03/01 02:19:36;;;;;;;12.98;6.45;;;1.70;99.90;;;;;;5072446;28;20048;-83
2021/03/01 02:22:03;;;;;;;14.55;7.05;;;1.70;99.90;;;;;;5072793;28;20104;-82
2021/03/01 02:24:42;;;;;;;13.98;6.45;;;1.90;99.90;;;;;;5072321;28;20080;-82
2021/03/01 02:27:12;;;;;;;14.57;7.35;;;2.00;99.90;;;;;;5072350;28;20048;-81
2021/03/01 02:29:42;;;;;;;12.88;7.65;;;2.20;99.90;;;;;;5072820;28;20577;-83
2021/03/01 02:32:09;;;;;;;14.82;7.25;;;2.20;99.90;;;;;;5073245;28;20458;-83
2021/03/01 02:34:38;;;;;;;14.88;8.20;;;2.30;99.90;;;;;;5072739;28;20068;-83
2021/03/01 02:37:11;;;;;;;18.35;8.65;;;2.30;99.90;;;;;;5074822;28;20142;-83
2021/03/01 02:39:42;;;;;;;17.33;9.73;;;2.30;99.90;;;;;;5076432;28;20095;-81
2021/03/01 02:42:11;;;;;;;15.70;8.65;;;2.30;99.90;;;;;;5072684;28;20045;-83
2021/03/01 02:44:40;;;;;;;16.98;8.65;;;2.40;99.90;;;;;;5073577;28;20535;-83
2021/03/01 02:47:07;;;;;;;19.75;8.43;;;2.40;99.90;;;;;;5072885;28;20049;-82
2021/03/01 02:49:36;;;;;;;15.57;8.13;;;2.40;99.90;;;;;;5074516;28;20151;-83
2021/03/01 02:52:03;;;;;;;15.05;8.07;;;2.30;99.90;;;;;;5073143;28;20067;-82
2021/03/01 02:54:30;;;;;;;19.13;8.68;;;2.30;99.90;;;;;;5075750;28;20048;-83
2021/03/01 02:56:58;;;;;;;18.35;9.25;;;2.30;99.90;;;;;;5078216;28;20040;-82
2021/03/01 02:59:25;;;;;;;19.08;8.85;;;2.30;99.90;;;;;;5077771;28;20068;-82
2021/03/01 03:01:53;;;;;;;17.35;8.75;;;2.30;99.90;;;;;;5077117;28;20051;-83
2021/03/01 03:04:21;;;;;;;26.33;10.07;;;2.30;99.90;;;;;;5077391;28;20052;-83
2021/03/01 03:06:49;;;;;;;17.65;10.23;;;2.30;99.90;;;;;;5077696;28;20052;-83
2021/03/01 03:09:16;;;;;;;22.15;10.90;;;2.40;99.90;;;;;;5079175;28;20083;-83
2021/03/01 03:11:43;;;;;;;20.75;10.40;;;2.40;99.90;;;;;;5078215;28;20048;-83
2021/03/01 03:14:15;;;;;;;26.45;12.00;;;2.40;99.90;;;;;;5078763;28;20128;-83
2021/03/01 03:16:42;;;;;;;23.85;12.85;;;2.40;99.90;;;;;;5078252;28;20083;-83
2021/03/01 03:19:08;;;;;;;26.13;12.82;;;2.50;99.90;;;;;;5078103;28;20048;-83
2021/03/01 03:21:35;;;;;;;28.08;13.85;;;2.50;99.90;;;;;;5078429;28;20135;-82
2021/03/01 03:24:06;;;;;;;25.67;11.75;;;2.50;99.90;;;;;;5078611;28;20052;-83
2021/03/01 03:26:33;;;;;;;22.77;11.18;;;2.50;99.90;;;;;;5078377;28;20052;-83
2021/03/01 03:29:00;;;;;;;24.23;11.98;;;2.50;99.90;;;;;;5078655;28;20135;-83
2021/03/01 03:31:26;;;;;;;28.05;12.23;;;2.50;99.90;;;;;;5078517;28;20493;-83
2021/03/01 03:33:53;;;;;;;24.67;12.68;;;2.60;99.90;;;;;;5078935;28;20128;-82
2021/03/01 03:36:30;;;;;;;25.40;13.48;;;2.60;99.90;;;;;;5079404;28;20139;-82
2021/03/01 03:39:01;;;;;;;27.52;12.93;;;2.60;99.90;;;;;;5080040;28;20076;-83
2021/03/01 03:41:28;;;;;;;24.10;11.95;;;2.60;99.90;;;;;;5079514;28;20095;-82
2021/03/01 03:43:56;;;;;;;26.70;12.63;;;2.60;99.90;;;;;;5079697;28;20044;-83
2021/03/01 03:46:26;;;;;;;25.73;15.13;;;2.60;99.90;;;;;;5080856;28;20497;-83
2021/03/01 03:48:53;;;;;;;24.75;14.90;;;2.60;99.90;;;;;;5080181;28;20048;-83
2021/03/01 03:51:21;;;;;;;25.08;14.35;;;2.50;99.90;;;;;;5081405;28;20075;-82
2021/03/01 03:53:51;;;;;;;26.92;14.57;;;2.50;99.90;;;;;;5079309;28;20072;-83
2021/03/01 03:56:24;;;;;;;27.35;14.77;;;2.50;99.90;;;;;;5079739;28;20064;-83
2021/03/01 03:58:57;;;;;;;26.65;14.00;;;2.60;99.90;;;;;;5080307;28;20555;-83
2021/03/01 04:01:25;;;;;;;30.08;14.18;;;2.70;99.90;;;;;;5082446;28;20497;-83
2021/03/01 04:03:54;;;;;;;24.23;12.98;;;2.70;99.90;;;;;;5081078;28;20486;-83
2021/03/01 04:06:22;;;;;;;24.77;12.57;;;2.70;99.90;;;;;;5079870;28;20379;-83
2021/03/01 04:08:51;;;;;;;27.63;12.82;;;2.60;99.90;;;;;;5081957;28;20048;-83
2021/03/01 04:11:20;;;;;;;27.13;13.88;;;2.60;99.90;;;;;;5082074;28;20045;-82
2021/03/01 04:13:48;;;;;;;26.67;13.95;;;2.60;99.90;;;;;;5082044;28;20518;-83
2021/03/01 04:16:15;;;;;;;29.15;14.00;;;2.60;99.90;;;;;;5085046;28;20048;-83
2021/03/01 04:18:45;;;;;;;30.48;13.48;;;2.70;99.90;;;;;;5082591;28;20152;-83
2021/03/01 04:21:12;;;;;;;27.95;13.00;;;2.70;99.90;;;;;;5082968;28;20051;-83
2021/03/01 04:23:41;;;;;;;22.95;13.00;;;2.70;99.90;;;;;;5083065;28;20137;-83
2021/03/01 04:26:08;;;;;;;28.98;14.02;;;2.80;99.90;;;;;;5083403;28;20154;-83
2021/03/01 04:28:35;;;;;;;26.45;14.70;;;2.80;99.90;;;;;;5083026;28;20106;-83
2021/03/01 04:31:04;;;;;;;25.20;14.98;;;2.80;99.90;;;;;;5085411;28;20052;-83
2021/03/01 04:33:33;;;;;;;30.23;15.60;;;2.90;99.90;;;;;;5084450;28;20528;-83
2021/03/01 04:36:01;;;;;;;25.35;15.40;;;2.80;99.90;;;;;;5085327;28;20087;-84
2021/03/01 04:38:27;;;;;;;23.23;14.45;;;2.90;99.90;;;;;;5086725;28;20087;-84
2021/03/01 04:40:54;;;;;;;24.40;15.27;;;2.90;99.90;;;;;;5083867;28;20468;-84
2021/03/01 04:43:23;;;;;;;31.73;15.13;;;2.90;99.90;;;;;;5084108;28;20052;-84
2021/03/01 04:45:53;;;;;;;23.42;14.25;;;2.90;99.90;;;;;;5083824;28;20049;-84
2021/03/01 04:48:22;;;;;;;25.98;13.75;;;2.90;99.90;;;;;;5084702;28;20052;-84
2021/03/01 04:50:51;;;;;;;27.55;14.65;;;3.00;99.90;;;;;;5084762;28;20052;-84
2021/03/01 04:53:18;;;;;;;30.70;14.45;;;3.00;99.90;;;;;;5088746;28;20045;-84
2021/03/01 04:55:45;;;;;;;24.60;15.27;;;3.00;99.90;;;;;;5096242;28;20044;-83
2021/03/01 04:58:15;;;;;;;28.63;15.68;;;3.00;99.90;;;;;;5093183;28;20055;-82
2021/03/01 05:00:42;;;;;;;31.63;17.20;;;3.00;99.90;;;;;;5085196;28;20074;-83
2021/03/01 05:03:08;;;;;;;30.38;15.90;;;3.00;99.90;;;;;;5086156;28;20456;-83
2021/03/01 05:05:35;;;;;;;28.65;16.40;;;3.00;99.90;;;;;;5088011;28;20063;-82
2021/03/01 05:08:05;;;;;;;26.30;15.13;;;2.90;99.90;;;;;;5099727;28;20051;-83
2021/03/01 05:10:32;;;;;;;31.00;15.98;;;2.90;99.90;;;;;;5098736;28;20048;-82
2021/03/01 05:12:59;;;;;;;29.80;16.52;;;2.90;99.90;;;;;;5083369;28;20549;-83
2021/03/01 05:15:25;;;;;;;27.90;16.77;;;2.80;99.90;;;;;;5074650;28;20052;-83
2021/03/01 05:17:51;;;;;;;30.58;16.50;;;2.90;99.90;;;;;;5074919;28;20052;-83
2021/03/01 05:20:18;;;;;;;33.03;16.77;;;2.90;99.90;;;;;;5077055;28;20040;-83
2021/03/01 05:22:45;;;;;;;27.30;14.93;;;2.90;99.90;;;;;;5082615;28;20056;-83
2021/03/01 05:25:11;;;;;;;24.73;15.07;;;2.80;99.90;;;;;;5082852;28;20056;-83
2021/03/01 05:27:38;;;;;;;29.05;16.48;;;2.80;99.90;;;;;;5079984;28;20413;-82
2021/03/01 05:30:07;;;;;;;26.27;15.55;;;2.90;99.90;;;;;;5074524;28;20482;-83
2021/03/01 05:32:33;;;;;;;32.30;16.95;;;2.90;99.90;;;;;;5074092;28;20040;-82
2021/03/01 05:35:00;;;;;;;28.77;16.20;;;3.00;99.90;;;;;;5075356;28;20131;-83
2021/03/01 05:37:27;;;;;;;32.33;17.70;;;3.10;99.90;;;;;;5074225;28;20045;-83
2021/03/01 05:39:53;;;;;;;28.75;16.85;;;3.10;99.90;;;;;;5073907;28;20143;-82
2021/03/01 05:42:20;;;;;;;29.00;17.08;;;3.00;99.90;;;;;;5074690;28;20098;-82
2021/03/01 05:44:46;;;;;;;30.20;17.63;;;3.00;99.90;;;;;;5073697;28;20413;-83
2021/03/01 05:47:13;;;;;;;31.90;17.85;;;3.00;99.90;;;;;;5073819;28;20052;-82
2021/03/01 05:49:41;;;;;;;32.22;17.95;;;3.00;99.90;;;;;;5075148;28;20064;-83
2021/03/01 05:52:09;;;;;;;36.72;18.90;;;3.10;99.90;;;;;;5075676;28;20340;-83
2021/03/01 05:54:36;;;;;;;30.73;17.38;;;3.00;99.90;;;;;;5075606;28;20113;-83
2021/03/01 05:57:06;;;;;;;33.15;17.05;;;2.90;99.90;;;;;;5073815;28;20041;-82
2021/03/01 05:59:33;;;;;;;30.75;17.42;;;3.00;99.90;;;;;;5073587;28;20452;-83
2021/03/01 06:02:00;;;;;;;34.22;18.15;;;3.10;99.90;;;;;;5081381;28;20048;-83
2021/03/01 06:04:27;;;;;;;31.63;18.02;;;3.10;99.90;;;;;;5074392;28;20501;-82
2021/03/01 06:06:54;;;;;;;35.15;18.00;;;3.10;99.90;;;;;;5074354;28;20131;-83
2021/03/01 06:09:20;;;;;;;34.75;19.00;;;3.20;99.90;;;;;;5075475;28;20474;-84
2021/03/01 06:11:48;;;;;;;38.47;17.73;;;3.20;99.90;;;;;;5074026;28;20075;-83
2021/03/01 06:14:15;;;;;;;27.83;16.60;;;3.20;99.90;;;;;;5074816;28;20071;-83
2021/03/01 06:17:08;;;;;;;32.03;19.60;;;3.20;99.90;;;;;;5074195;28;20049;-83
2021/03/01 06:19:55;;;;;;;32.72;19.77;;;3.10;99.90;;;;;;5072467;28;20052;-83
2021/03/01 06:22:23;;;;;;;36.15;18.52;;;3.10;99.90;;;;;;5072080;28;20045;-83
2021/03/01 06:25:16;;;;;;;30.80;18.02;;;3.10;99.90;;;;;;5078199;28;20591;-83
2021/03/01 06:27:48;;;;;;;;;;;3.10;99.90;;;;;;5074254;28;20110;-84
2021/03/01 06:30:15;;;;;;;31.25;17.42;;;3.20;99.90;;;;;;5075109;28;19969;-82
2021/03/01 06:32:41;;;;;;;32.80;18.52;;;3.10;99.90;;;;;;5080106;28;20040;-83
2021/03/01 06:35:30;;;;;;;32.97;17.65;;;3.10;99.90;;;;;;5083985;28;20049;-83
2021/03/01 06:38:35;;;;;;;36.33;17.75;;;3.20;99.90;;;;;;5083093;28;20083;-83
2021/03/01 06:41:07;;;;;;;38.10;18.23;;;3.20;99.90;;;;;;5083435;28;20060;-83
2021/03/01 06:43:34;;;;;;;33.55;18.75;;;3.20;99.90;;;;;;5084507;28;20116;-84
2021/03/01 06:46:11;;;;;;;34.35;19.10;;;3.30;99.90;;;;;;5083219;28;20104;-84
2021/03/01 06:48:39;;;;;;;36.75;19.10;;;3.30;99.90;;;;;;5078431;28;20102;-83
2021/03/01 06:51:07;;;;;;;35.53;19.42;;;3.30;99.90;;;;;;5077218;28;20084;-83
2021/03/01 06:53:35;;;;;;;34.85;19.33;;;3.30;99.90;;;;;;5077115;28;20051;-83
2021/03/01 06:56:13;;;;;;;39.42;21.50;;;3.30;99.90;;;;;;5078302;28;20068;-83
2021/03/01 06:58:43;;;;;;;56.65;32.67;;;3.30;99.90;;;;;;5078049;28;20072;-83
2021/03/01 07:01:21;;;;;;;50.95;28.35;;;3.30;99.90;;;;;;5077197;28;20109;-84
2021/03/01 07:03:50;;;;;;;87.88;45.08;;;3.40;99.90;;;;;;5077522;28;20040;-84
2021/03/01 07:06:18;;;;;;;50.95;29.27;;;3.40;99.90;;;;;;5077532;28;20048;-84
2021/03/01 07:08:48;;;;;;;67.38;39.20;;;3.40;99.90;;;;;;5076716;28;20060;-84
2021/03/01 07:11:35;;;;;;;41.13;22.80;;;3.50;99.90;;;;;;5077739;28;20087;-83
2021/03/01 07:14:04;;;;;;;36.25;21.08;;;3.50;99.90;;;;;;5077292;28;20094;-83
2021/03/01 07:16:47;;;;;;;30.95;17.35;;;3.50;99.90;;;;;;5078909;28;20368;-83
2021/03/01 07:19:23;;;;;;;29.83;16.67;;;3.50;99.90;;;;;;5079190;28;20049;-83
2021/03/01 07:21:53;;;;;;;35.78;19.45;;;3.60;99.90;;;;;;5069972;28;20049;-83
2021/03/01 07:24:21;;;;;;;33.80;19.33;;;3.70;99.90;;;;;;5068342;28;20076;-84
2021/03/01 07:26:50;;;;;;;66.05;37.05;;;3.80;99.90;;;;;;5072311;28;20471;-82
2021/03/01 07:29:21;;;;;;;41.30;24.40;;;3.90;99.90;;;;;;5068532;28;20045;-84
2021/03/01 07:32:04;;;;;;;31.45;17.20;;;3.90;99.90;;;;;;5063646;28;20045;-84
2021/03/01 07:34:31;;;;;;;40.65;24.95;;;3.90;99.90;;;;;;5063019;28;20075;-84
2021/03/01 07:36:59;;;;;;;34.15;16.75;;;4.00;99.90;;;;;;5063401;28;20457;-84
2021/03/01 07:39:27;;;;;;;29.20;15.65;;;4.10;99.90;;;;;;5062605;28;20053;-84
2021/03/01 07:41:54;;;;;;;30.00;15.80;;;4.10;99.90;;;;;;5067604;28;20041;-84
2021/03/01 07:44:27;;;;;;;28.88;15.68;;;4.10;99.90;;;;;;5061207;28;20045;-81
2021/03/01 07:46:54;;;;;;;27.55;15.65;;;4.20;99.90;;;;;;5060677;28;20070;-80
2021/03/01 07:49:45;;;;;;;26.40;15.60;;;4.20;99.90;;;;;;5063563;28;20048;-81
2021/03/01 07:52:18;;;;;;;26.35;14.52;;;4.30;99.90;;;;;;5074016;28;20044;-80
2021/03/01 07:55:11;;;;;;;24.27;14.25;;;4.30;99.90;;;;;;5084807;28;20045;-80
2021/03/01 07:57:41;;;;;;;25.85;14.65;;;4.40;99.90;;;;;;5077280;28;20486;-80
2021/03/01 08:00:29;;;;;;;24.00;13.70;;;4.40;99.90;;;;;;5078184;28;20083;-80
2021/03/01 08:02:57;;;;;;;21.85;12.43;;;4.40;99.90;;;;;;5082333;28;20044;-84
2021/03/01 08:05:30;;;;;;;21.48;13.65;;;4.40;99.90;;;;;;5087455;28;20178;-84
2021/03/01 08:07:59;;;;;;;23.27;13.80;;;4.50;99.90;;;;;;5086189;28;20490;-84
2021/03/01 08:10:29;;;;;;;21.83;13.43;;;4.60;99.90;;;;;;5087348;28;20084;-84
2021/03/01 08:12:55;;;;;;;23.25;14.30;;;4.60;99.90;;;;;;5087137;28;20044;-84
2021/03/01 08:15:33;;;;;;;22.10;12.85;;;4.70;99.90;;;;;;5086914;28;20486;-84
2021/03/01 08:18:01;;;;;;;25.10;13.40;;;4.70;99.90;;;;;;5087177;28;20045;-84
2021/03/01 08:20:34;;;;;;;25.08;13.95;;;4.80;99.90;;;;;;5086414;28;20044;-84
2021/03/01 08:23:06;;;;;;;21.50;13.27;;;4.90;99.90;;;;;;5088932;28;20051;-84
2021/03/01 08:25:45;;;;;;;17.48;12.18;;;5.00;99.90;;;;;;5088120;28;20052;-84
2021/03/01 08:28:35;;;;;;;22.95;13.60;;;5.20;99.90;;;;;;5088867;28;20080;-84
2021/03/01 08:31:08;;;;;;;19.05;12.25;;;5.20;99.90;;;;;;5086110;28;20072;-84
2021/03/01 08:33:35;;;;;;;19.67;11.80;;;5.30;99.90;;;;;;5087928;28;20421;-84
2021/03/01 08:36:25;;;;;;;17.13;11.40;;;5.40;99.90;;;;;;5088841;28;20063;-84
2021/03/01 08:38:56;;;;;;;18.13;11.30;;;5.50;99.90;;;;;;5087952;28;20044;-83
2021/03/01 08:41:33;;;;;;;15.80;11.15;;;5.40;99.90;;;;;;5085199;28;20055;-83
2021/03/01 08:44:02;;;;;;;15.00;10.35;;;5.50;99.90;;;;;;5066399;28;20110;-83
2021/03/01 08:46:29;;;;;;;15.90;10.05;;;5.70;99.90;;;;;;5067468;28;20053;-83
2021/03/01 08:48:57;;;;;;;14.35;9.68;;;5.80;99.90;;;;;;5067887;28;20045;-83
2021/03/01 08:51:23;;;;;;;16.55;9.80;;;5.90;99.90;;;;;;5074413;28;20065;-82
2021/03/01 08:53:53;;;;;;;15.20;10.43;;;6.00;99.90;;;;;;5072372;28;20072;-82
2021/03/01 08:56:25;;;;;;;14.10;10.05;;;5.90;99.90;;;;;;5064128;28;20052;-82
2021/03/01 08:58:52;;;;;;;15.35;9.88;;;5.90;99.90;;;;;;5063800;28;20103;-82
2021/03/01 09:01:19;;;;;;;20.60;11.13;;;6.00;99.90;;;;;;5065286;28;20048;-82
2021/03/01 09:03:46;;;;;;;18.85;11.00;;;6.10;99.90;;;;;;5078684;28;20067;-82
2021/03/01 09:06:17;;;;;;;16.65;11.00;;;6.10;99.90;;;;;;5077902;28;20037;-82
2021/03/01 09:08:45;;;;;;;13.85;9.88;;;6.20;99.90;;;;;;5063150;28;20053;-82
2021/03/01 09:11:28;;;;;;;17.65;10.77;;;6.20;99.90;;;;;;5061003;28;20079;-84
2021/03/01 09:13:57;;;;;;;16.50;10.60;;;6.30;99.90;;;;;;5064960;28;20045;-86
2021/03/01 09:16:25;;;;;;;18.63;10.10;;;6.50;99.90;;;;;;5066939;28;20049;-84
2021/03/01 09:19:02;;;;;;;14.05;9.82;;;6.40;99.90;;;;;;5065166;28;20049;-84
2021/03/01 09:21:30;;;;;;;15.25;10.30;;;6.40;99.90;;;;;;5065642;28;20087;-84
2021/03/01 09:23:57;;;;;;;16.65;10.45;;;6.50;99.90;;;;;;5067727;28;20053;-84
2021/03/01 09:26:25;;;;;;;24.02;11.00;;;6.60;99.90;;;;;;5069041;28;20170;-84
2021/03/01 09:28:59;;;;;;;19.48;11.25;;;6.70;99.90;;;;;;5068834;28;20495;-83
2021/03/01 09:31:29;;;;;;;16.13;10.00;;;6.80;99.90;;;;;;5067629;28;20049;-83
2021/03/01 09:33:55;;;;;;;18.73;11.15;;;7.00;99.90;;;;;;5069930;28;20048;-83
2021/03/01 09:36:27;;;;;;;14.77;9.70;;;7.20;99.90;;;;;;5068893;28;20048;-83
2021/03/01 09:38:54;;;;;;;16.88;10.05;;;7.20;99.90;;;;;;5068546;28;20049;-83
2021/03/01 09:41:21;;;;;;;17.73;9.55;;;7.20;99.90;;;;;;5067802;28;20062;-83
2021/03/01 09:43:50;;;;;;;13.95;8.95;;;7.20;99.90;;;;;;5068411;28;20059;-83
2021/03/01 09:46:18;;;;;;;11.10;7.38;;;7.30;99.90;;;;;;5068615;28;20080;-83
2021/03/01 09:48:50;;;;;;;11.50;7.35;;;7.60;99.90;;;;;;5067394;28;20053;-83
2021/03/01 09:51:17;;;;;;;11.38;7.28;;;7.70;99.90;;;;;;5067691;28;20498;-83
2021/03/01 09:53:45;;;;;;;11.85;6.45;;;8.00;99.90;;;;;;5067426;28;20049;-83
2021/03/01 09:56:11;;;;;;;8.60;5.85;;;8.40;99.90;;;;;;5068510;28;20045;-84
2021/03/01 09:58:42;;;;;;;9.88;6.45;;;8.70;99.90;;;;;;5069370;28;20048;-84
2021/03/01 10:01:16;;;;;;;6.90;5.97;;;9.00;99.90;;;;;;5069130;28;20056;-84
2021/03/01 10:03:43;;;;;;;26.98;7.38;;;9.30;99.90;;;;;;5069689;28;20049;-84
2021/03/01 10:06:15;;;;;;;8.27;5.47;;;9.40;99.90;;;;;;5068952;28;20068;-83
2021/03/01 10:08:44;;;;;;;57.65;10.13;;;9.80;99.90;;;;;;5066638;28;20162;-83
2021/03/01 10:11:22;;;;;;;8.05;5.95;;;9.30;99.90;;;;;;5067497;28;20049;-84
2021/03/01 10:13:48;;;;;;;59.70;10.27;;;9.00;99.90;;;;;;5068395;28;20044;-84
2021/03/01 10:16:31;;;;;;;11.35;5.35;;;8.90;99.90;;;;;;5068835;28;20052;-84
2021/03/01 10:19:16;;;;;;;6.78;5.20;;;9.90;99.90;;;;;;5067551;28;20472;-84
2021/03/01 10:21:44;;;;;;;5.72;5.05;;;9.90;99.90;;;;;;5067205;28;20045;-84
2021/03/01 10:24:12;;;;;;;7.68;4.95;;;10.30;99.90;;;;;;5067335;28;20048;-84
2021/03/01 10:27:00;;;;;;;18.90;6.28;;;10.80;99.90;;;;;;5069527;28;20053;-84
2021/03/01 10:29:44;;;;;;;7.63;5.50;;;10.70;99.90;;;;;;5066695;28;20466;-84
2021/03/01 10:32:20;;;;;;;;;;;11.20;99.90;;;;;;5069025;28;20049;-84
2021/03/01 10:34:48;;;;;;;5.18;4.40;;;12.60;99.90;;;;;;5068415;28;19992;-84
2021/03/01 10:37:16;;;;;;;7.63;4.80;;;15.30;96.90;;;;;;5068123;28;20079;-85
2021/03/01 10:39:47;;;;;;;4.28;3.80;;;16.50;82.80;;;;;;5066520;28;20049;-84
2021/03/01 10:42:20;;;;;;;6.38;4.43;;;17.90;75.10;;;;;;5067074;28;20439;-84
2021/03/01 10:44:56;;;;;;;8.50;3.80;;;19.20;65.30;;;;;;5067005;28;20049;-84
2021/03/01 10:47:26;;;;;;;4.97;4.20;;;20.90;61.10;;;;;;5067425;28;20059;-85
2021/03/01 10:49:54;;;;;;;4.47;4.10;;;20.30;55.80;;;;;;5066423;28;20125;-85
2021/03/01 10:52:21;;;;;;;5.32;4.47;;;19.90;56.40;;;;;;5065565;28;20072;-84
2021/03/01 10:54:50;;;;;;;16.17;4.95;;;19.40;55.90;;;;;;5067706;28;20049;-85
2021/03/01 10:57:19;;;;;;;5.00;4.50;;;18.20;59.90;;;;;;5067504;28;20052;-85
2021/03/01 10:59:50;;;;;;;6.53;4.40;;;17.20;60.90;;;;;;5067391;28;20065;-85
2021/03/01 11:02:17;;;;;;;4.35;4.03;;;18.10;61.60;;;;;;5065552;28;20053;-85
2021/03/01 11:04:45;;;;;;;12.82;5.40;;;18.40;59.00;;;;;;5067959;28;20048;-85
2021/03/01 11:07:11;;;;;;;5.90;3.97;;;17.50;62.80;;;;;;5067345;28;20071;-85
2021/03/01 11:09:38;;;;;;;16.77;4.65;;;18.60;59.80;;;;;;5066471;28;20061;-84
2021/03/01 11:12:06;;;;;;;3.88;3.55;;;18.60;58.70;;;;;;5065684;28;20053;-85
2021/03/01 11:14:33;;;;;;;9.95;4.30;;;18.80;59.60;;;;;;5067538;28;20041;-84
2021/03/01 11:17:00;;;;;;;5.38;4.30;;;19.20;59.00;;;;;;5071341;28;20044;-85
2021/03/01 11:19:27;;;;;;;6.15;4.13;;;19.70;57.20;;;;;;5070435;28;20045;-84
2021/03/01 11:21:53;;;;;;;4.00;3.70;;;18.90;57.60;;;;;;5069417;28;20075;-84
2021/03/01 11:24:21;;;;;;;4.30;3.90;;;18.50;58.60;;;;;;5069326;28;20080;-85
2021/03/01 11:26:49;;;;;;;5.57;4.18;;;19.30;56.80;;;;;;5068776;28;20049;-85
2021/03/01 11:29:16;;;;;;;7.40;3.83;;;19.60;56.40;;;;;;5069345;28;20052;-84
2021/03/01 11:31:42;;;;;;;21.52;4.15;;;20.10;56.70;;;;;;5069273;28;20045;-85
2021/03/01 11:34:10;;;;;;;5.53;3.95;;;20.60;54.50;;;;;;5069640;28;20422;-84
2021/03/01 11:36:40;;;;;;;10.43;4.75;;;19.80;56.20;;;;;;5069611;28;20525;-84
2021/03/01 11:39:08;;;;;;;6.97;4.85;;;19.50;56.20;;;;;;5067307;28;20045;-84
2021/03/01 11:41:37;;;;;;;6.07;4.55;;;19.20;58.40;;;;;;5070257;28;20041;-84
2021/03/01 11:44:04;;;;;;;7.97;4.70;;;18.60;58.80;;;;;;5069295;28;20132;-85
2021/03/01 11:46:34;;;;;;;4.80;4.40;;;19.10;60.70;;;;;;5070124;28;20053;-85
2021/03/01 11:49:00;;;;;;;5.15;4.70;;;19.70;58.00;;;;;;5070024;28;20124;-84
2021/03/01 11:51:26;;;;;;;23.77;6.45;;;19.40;59.30;;;;;;5068641;28;20059;-84
2021/03/01 11:53:53;;;;;;;4.40;4.00;;;19.30;58.90;;;;;;5068771;28;20071;-85
2021/03/01 11:56:20;;;;;;;5.88;5.28;;;19.00;59.90;;;;;;5068690;28;20060;-84
2021/03/01 11:58:49;;;;;;;5.78;4.93;;;19.20;59.70;;;;;;5069831;28;20053;-84
2021/03/01 12:01:15;;;;;;;10.93;5.47;;;19.10;59.20;;;;;;5070932;28;20102;-84
2021/03/01 12:03:42;;;;;;;4.97;4.57;;;18.60;59.90;;;;;;5078033;28;20211;-84
2021/03/01 12:06:10;;;;;;;8.43;5.00;;;19.20;60.40;;;;;;5071734;28;20136;-85
2021/03/01 12:08:36;;;;;;;6.28;5.07;;;20.90;57.50;;;;;;5069965;28;20110;-85
2021/03/01 12:11:03;;;;;;;12.20;5.50;;;18.70;60.70;;;;;;5069322;28;20057;-84
2021/03/01 12:13:30;;;;;;;6.03;5.43;;;19.20;60.80;;;;;;5070584;28;20048;-84
2021/03/01 12:15:56;;;;;;;5.55;4.97;;;18.30;60.80;;;;;;5069732;28;20052;-85
2021/03/01 12:18:23;;;;;;;4.68;4.32;;;18.70;62.20;;;;;;5070706;28;20056;-84
2021/03/01 12:20:49;;;;;;;5.20;4.80;;;19.80;61.90;;;;;;5069448;28;20045;-85
2021/03/01 12:23:16;;;;;;;5.18;4.65;;;20.40;58.50;;;;;;5069730;28;20053;-85
2021/03/01 12:25:42;;;;;;;8.70;5.40;;;20.10;58.00;;;;;;5071776;28;20045;-83
2021/03/01 12:28:08;;;;;;;10.18;5.35;;;18.70;60.60;;;;;;5076697;28;20052;-83
2021/03/01 12:30:34;;;;;;;5.72;5.22;;;19.60;59.60;;;;;;5070667;28;20048;-84
2021/03/01 12:33:03;;;;;;;5.32;4.93;;;20.20;57.10;;;;;;5069093;28;20048;-84
2021/03/01 12:35:30;;;;;;;13.35;6.15;;;18.80;60.90;;;;;;5070462;28;20055;-84
2021/03/01 12:37:58;;;;;;;6.35;5.40;;;18.00;62.10;;;;;;5078357;28;20108;-84
2021/03/01 12:40:25;;;;;;;8.55;6.50;;;17.80;62.50;;;;;;5079008;28;20040;-84
2021/03/01 12:42:52;;;;;;;12.13;6.93;;;15.40;71.10;;;;;;5069223;28;20072;-84
2021/03/01 12:45:19;;;;;;;8.20;6.30;;;14.90;78.10;;;;;;5068318;28;20048;-84
2021/03/01 12:47:46;;;;;;;8.15;6.65;;;14.80;83.90;;;;;;5069328;28;20053;-84
2021/03/01 12:50:13;;;;;;;7.32;6.25;;;15.40;83.50;;;;;;5068760;28;20060;-85
2021/03/01 12:52:40;;;;;;;9.43;6.32;;;16.30;78.00;;;;;;5068697;28;20498;-84
2021/03/01 12:55:06;;;;;;;6.65;5.85;;;16.60;77.10;;;;;;5069003;28;20068;-85